Time;durP1;ratioP1;P1;durP2;ratioP2;P2;SDS_P1;SDS_P2;PMS_P1;PMS_P2;Temp;Humidity;BMP_temperature;BMP_pressure;BME280_temperature;BME280_humidity;BME280_pressure;Samples;Min_cycle;Max_cycle;Signal;HPM_P1;HPM_P2
2022/02/18 00:00:12;;;;;;;21.40;4.22;;;10.40;99.90;;;;;;5010785;28;20071;-79
2022/02/18 00:02:38;;;;;;;15.63;3.10;;;10.50;99.90;;;;;;4992318;28;20091;-79
2022/02/18 00:05:04;;;;;;;20.80;4.22;;;10.50;99.90;;;;;;5010567;28;20021;-79
2022/02/18 00:07:29;;;;;;;26.55;4.90;;;10.40;99.90;;;;;;4985229;28;20014;-79
2022/02/18 00:09:55;;;;;;;25.98;4.35;;;11.60;99.90;;;;;;4968774;28;20033;-78
2022/02/18 00:12:21;;;;;;;23.80;3.95;;;10.70;99.90;;;;;;5004980;28;20023;-79
2022/02/18 00:14:47;;;;;;;15.07;2.75;;;11.60;99.90;;;;;;5004331;28;20056;-79
2022/02/18 00:17:12;;;;;;;17.60;3.47;;;10.60;99.90;;;;;;5010688;28;20375;-79
2022/02/18 00:19:38;;;;;;;21.00;3.72;;;10.20;99.90;;;;;;5011180;28;20036;-78
2022/02/18 00:22:04;;;;;;;24.30;3.58;;;10.50;99.90;;;;;;5011808;28;20038;-78
2022/02/18 00:24:30;;;;;;;21.75;4.22;;;10.20;99.90;;;;;;4977739;28;20059;-78
2022/02/18 00:26:55;;;;;;;14.00;3.05;;;10.70;99.90;;;;;;5010559;28;20044;-79
2022/02/18 00:29:21;;;;;;;18.52;4.43;;;10.70;99.90;;;;;;5013421;28;20026;-78
2022/02/18 00:31:46;;;;;;;25.33;4.20;;;11.30;99.90;;;;;;4980490;28;20520;-79
2022/02/18 00:34:12;;;;;;;17.52;3.33;;;10.70;99.90;;;;;;5010844;28;20037;-79
2022/02/18 00:36:38;;;;;;;17.60;3.65;;;10.40;99.90;;;;;;5012785;28;20086;-79
2022/02/18 00:39:04;;;;;;;21.75;3.58;;;12.00;99.90;;;;;;5012135;28;20118;-78
2022/02/18 00:41:29;;;;;;;17.55;3.50;;;10.60;99.90;;;;;;5012684;28;20034;-79
2022/02/18 00:43:55;;;;;;;16.30;3.47;;;12.50;99.90;;;;;;4995143;28;20096;-78
2022/02/18 00:46:21;;;;;;;17.45;3.38;;;10.40;99.90;;;;;;5011928;28;20037;-78
2022/02/18 00:48:47;;;;;;;14.50;3.28;;;10.40;99.90;;;;;;5010715;28;20030;-79
2022/02/18 00:51:13;;;;;;;25.40;4.22;;;11.80;99.90;;;;;;5010442;28;20030;-79
2022/02/18 00:53:38;;;;;;;18.23;3.45;;;10.50;99.90;;;;;;4992617;28;20464;-79
2022/02/18 00:56:04;;;;;;;21.70;4.28;;;10.60;99.90;;;;;;4976235;28;20060;-79
2022/02/18 00:58:30;;;;;;;18.95;3.22;;;10.70;99.90;;;;;;5009416;28;20063;-79
2022/02/18 01:00:56;;;;;;;20.55;3.03;;;10.80;99.90;;;;;;4992595;28;20026;-78
2022/02/18 01:03:21;;;;;;;17.30;3.88;;;10.70;99.90;;;;;;4992486;28;20038;-78
2022/02/18 01:05:49;;;;;;;21.83;3.30;;;10.90;99.90;;;;;;4978954;28;20022;-79
2022/02/18 01:08:15;;;;;;;23.08;2.80;;;10.60;99.90;;;;;;4996073;28;20038;-79
2022/02/18 01:10:41;;;;;;;25.15;4.38;;;11.50;99.90;;;;;;5013788;28;20029;-80
2022/02/18 01:13:07;;;;;;;21.88;3.70;;;10.80;99.90;;;;;;4994833;28;20121;-78
2022/02/18 01:15:33;;;;;;;23.85;3.35;;;10.70;99.90;;;;;;4995049;28;20195;-77
2022/02/18 01:17:59;;;;;;;15.43;3.00;;;10.60;99.90;;;;;;5012425;28;20053;-78
2022/02/18 01:20:25;;;;;;;20.90;3.70;;;10.80;99.90;;;;;;5015379;28;20182;-78
2022/02/18 01:22:50;;;;;;;18.38;3.63;;;10.50;99.90;;;;;;4994607;28;20083;-78
2022/02/18 01:25:16;;;;;;;17.40;3.65;;;10.50;99.90;;;;;;5012624;28;20030;-77
2022/02/18 01:27:42;;;;;;;15.13;3.58;;;11.70;99.90;;;;;;4995925;28;20033;-78
2022/02/18 01:30:09;;;;;;;19.15;3.83;;;10.50;99.90;;;;;;5011509;28;20026;-78
2022/02/18 01:32:37;;;;;;;23.23;3.80;;;10.50;99.90;;;;;;4994424;28;20073;-78
2022/02/18 01:35:03;;;;;;;18.27;2.58;;;11.30;99.90;;;;;;5016319;28;20034;-78
2022/02/18 01:37:29;;;;;;;13.30;3.55;;;10.50;99.90;;;;;;4973478;28;20522;-78
2022/02/18 01:39:54;;;;;;;17.13;3.53;;;10.50;99.90;;;;;;4985591;28;20037;-78
2022/02/18 01:42:20;;;;;;;21.45;3.67;;;10.60;99.90;;;;;;4978452;28;20048;-78
2022/02/18 01:44:47;;;;;;;16.80;3.55;;;10.50;99.90;;;;;;5012108;28;20079;-78
2022/02/18 01:47:20;;;;;;;10.07;2.42;;;10.50;99.90;;;;;;5011910;28;20022;-78
2022/02/18 01:49:47;;;;;;;12.23;3.58;;;10.40;99.90;;;;;;5011326;28;20057;-78
2022/02/18 01:52:15;;;;;;;17.05;3.25;;;10.60;99.90;;;;;;5011399;28;20090;-77
2022/02/18 01:54:41;;;;;;;16.67;3.47;;;11.60;99.90;;;;;;5011703;28;20030;-78
2022/02/18 01:57:07;;;;;;;14.20;2.88;;;10.40;99.90;;;;;;5011793;28;20030;-78
2022/02/18 01:59:33;;;;;;;13.88;2.92;;;10.50;99.90;;;;;;5010863;28;20397;-78
2022/02/18 02:01:59;;;;;;;16.52;3.58;;;10.50;99.90;;;;;;5011641;28;20034;-78
2022/02/18 02:04:25;;;;;;;18.38;3.30;;;10.70;99.90;;;;;;4994121;28;20018;-78
2022/02/18 02:06:52;;;;;;;20.27;2.65;;;11.00;99.90;;;;;;4994241;28;20079;-77
2022/02/18 02:09:18;;;;;;;17.95;3.25;;;10.40;99.90;;;;;;4992974;28;20034;-78
2022/02/18 02:11:44;;;;;;;14.43;2.90;;;11.70;99.90;;;;;;5011555;28;20026;-78
2022/02/18 02:14:10;;;;;;;19.45;3.70;;;10.50;99.90;;;;;;5011610;28;20482;-78
2022/02/18 02:16:36;;;;;;;22.02;4.47;;;10.40;99.90;;;;;;4993562;28;20030;-78
2022/02/18 02:19:01;;;;;;;19.27;3.13;;;10.40;99.90;;;;;;4993216;28;20034;-78
2022/02/18 02:21:27;;;;;;;16.05;3.78;;;10.40;99.90;;;;;;4974945;28;20076;-78
2022/02/18 02:23:54;;;;;;;18.35;3.28;;;10.40;99.90;;;;;;4993252;28;20034;-78
2022/02/18 02:26:20;;;;;;;22.65;3.50;;;11.40;99.90;;;;;;5011265;28;20440;-78
2022/02/18 02:28:45;;;;;;;20.60;3.28;;;10.40;99.90;;;;;;5010499;28;20034;-78
2022/02/18 02:31:11;;;;;;;14.63;3.33;;;10.20;99.90;;;;;;4993919;28;20413;-78
2022/02/18 02:33:37;;;;;;;22.70;2.70;;;11.60;99.90;;;;;;4993533;28;20030;-78
2022/02/18 02:36:03;;;;;;;14.63;3.65;;;10.20;99.90;;;;;;4978094;28;20030;-78
2022/02/18 02:38:28;;;;;;;15.45;2.78;;;10.20;99.90;;;;;;4981542;28;20026;-77
2022/02/18 02:40:54;;;;;;;17.00;3.25;;;10.90;99.90;;;;;;5016555;28;20045;-78
2022/02/18 02:43:20;;;;;;;16.90;2.85;;;10.40;99.90;;;;;;5011569;28;20105;-78
2022/02/18 02:45:45;;;;;;;16.30;3.00;;;10.40;99.90;;;;;;4996305;28;20026;-80
2022/02/18 02:48:11;;;;;;;13.13;2.72;;;11.30;99.90;;;;;;4994340;28;20398;-78
2022/02/18 02:50:37;;;;;;;17.83;2.65;;;10.50;99.90;;;;;;5014593;28;20033;-78
2022/02/18 02:53:03;;;;;;;15.75;2.90;;;10.20;99.90;;;;;;4977260;28;20398;-78
2022/02/18 02:55:28;;;;;;;15.65;2.63;;;10.50;99.90;;;;;;4993268;28;20034;-78
2022/02/18 02:57:54;;;;;;;14.98;3.13;;;10.30;99.90;;;;;;4995896;28;20038;-77
2022/02/18 03:00:20;;;;;;;14.77;3.13;;;10.20;99.90;;;;;;4976146;28;20022;-78
2022/02/18 03:02:45;;;;;;;18.25;3.30;;;10.40;99.90;;;;;;5010641;28;20033;-78
2022/02/18 03:05:12;;;;;;;12.13;3.13;;;10.30;99.90;;;;;;5010642;28;20402;-78
2022/02/18 03:07:38;;;;;;;15.40;3.40;;;10.20;99.90;;;;;;5010054;28;20060;-78
2022/02/18 03:10:06;;;;;;;14.40;3.00;;;10.30;99.90;;;;;;4992435;28;20084;-78
2022/02/18 03:12:32;;;;;;;20.42;3.20;;;10.20;99.90;;;;;;5010575;28;20022;-78
2022/02/18 03:14:58;;;;;;;13.70;3.00;;;10.60;99.90;;;;;;5010604;28;20487;-78
2022/02/18 03:17:24;;;;;;;20.08;3.20;;;12.20;99.90;;;;;;5010397;28;20053;-78
2022/02/18 03:19:49;;;;;;;10.82;1.95;;;11.20;99.90;;;;;;4992034;28;20034;-78
2022/02/18 03:22:16;;;;;;;13.00;2.50;;;10.10;99.90;;;;;;5010266;28;20030;-78
2022/02/18 03:24:42;;;;;;;18.17;2.92;;;10.20;99.90;;;;;;5010026;28;20454;-78
2022/02/18 03:27:08;;;;;;;15.73;2.92;;;10.00;99.90;;;;;;5010259;28;20087;-78
2022/02/18 03:29:34;;;;;;;17.60;3.55;;;10.00;99.90;;;;;;5008241;28;20034;-78
2022/02/18 03:32:00;;;;;;;13.38;2.92;;;10.00;99.90;;;;;;4992718;28;20026;-78
2022/02/18 03:34:26;;;;;;;16.52;2.33;;;9.70;99.90;;;;;;4993312;28;20083;-78
2022/02/18 03:36:52;;;;;;;14.48;2.63;;;10.20;99.90;;;;;;5010157;28;20547;-77
2022/02/18 03:39:17;;;;;;;17.85;2.88;;;9.80;99.90;;;;;;4992197;28;20428;-78
2022/02/18 03:41:43;;;;;;;18.33;2.33;;;10.50;99.90;;;;;;5009990;28;20058;-78
2022/02/18 03:44:09;;;;;;;16.10;3.03;;;10.40;99.90;;;;;;5013286;28;20018;-78
2022/02/18 03:46:35;;;;;;;18.77;2.88;;;10.10;99.90;;;;;;4997655;28;20117;-78
2022/02/18 03:49:03;;;;;;;13.65;2.95;;;10.30;99.90;;;;;;5011989;28;20065;-78
2022/02/18 03:51:28;;;;;;;12.27;2.17;;;10.20;99.90;;;;;;5011172;28;20082;-77
2022/02/18 03:53:54;;;;;;;20.20;3.05;;;10.80;99.90;;;;;;4993591;28;20034;-78
2022/02/18 03:56:20;;;;;;;20.45;2.35;;;10.20;99.90;;;;;;4993654;28;20073;-78
2022/02/18 03:58:46;;;;;;;14.93;3.17;;;10.10;99.90;;;;;;5010200;28;20030;-78
2022/02/18 04:01:11;;;;;;;13.13;2.92;;;11.00;99.90;;;;;;5010168;28;20104;-78
2022/02/18 04:03:37;;;;;;;12.32;1.77;;;10.70;99.90;;;;;;5011070;28;20026;-78
2022/02/18 04:06:03;;;;;;;16.25;2.42;;;10.40;99.90;;;;;;5010610;28;20071;-78
2022/02/18 04:08:29;;;;;;;11.75;2.45;;;10.20;99.90;;;;;;4992024;28;20559;-78
2022/02/18 04:10:54;;;;;;;9.23;2.03;;;10.20;99.90;;;;;;5010290;28;20049;-78
2022/02/18 04:13:20;;;;;;;9.15;2.28;;;11.00;99.90;;;;;;4993030;28;20037;-78
2022/02/18 04:15:46;;;;;;;11.57;2.42;;;10.20;99.90;;;;;;5011029;28;20022;-78
2022/02/18 04:18:12;;;;;;;8.82;2.38;;;10.20;99.90;;;;;;4992757;28;20064;-78
2022/02/18 04:20:37;;;;;;;7.60;2.40;;;10.30;99.90;;;;;;4975709;28;20117;-78
2022/02/18 04:23:03;;;;;;;11.40;3.20;;;10.10;99.90;;;;;;4993117;28;20501;-78
2022/02/18 04:25:30;;;;;;;14.00;2.55;;;10.70;99.90;;;;;;4992872;28;20033;-78
2022/02/18 04:27:58;;;;;;;15.00;2.58;;;10.10;99.90;;;;;;4977239;28;20034;-79
2022/02/18 04:30:24;;;;;;;12.65;3.22;;;10.40;99.90;;;;;;4975753;28;20034;-78
2022/02/18 04:32:50;;;;;;;12.18;2.95;;;11.40;99.90;;;;;;4995843;28;20065;-78
2022/02/18 04:35:16;;;;;;;17.08;2.90;;;10.20;99.90;;;;;;4979271;28;20041;-78
2022/02/18 04:37:43;;;;;;;8.27;2.20;;;10.30;99.90;;;;;;4993891;28;20049;-78
2022/02/18 04:40:10;;;;;;;7.28;1.85;;;10.20;99.90;;;;;;4999450;28;20041;-78
2022/02/18 04:42:37;;;;;;;10.60;2.30;;;10.00;99.90;;;;;;5012162;28;20057;-78
2022/02/18 04:45:03;;;;;;;14.88;2.10;;;10.10;99.90;;;;;;5012569;28;20037;-79
2022/02/18 04:47:29;;;;;;;17.85;3.03;;;10.10;99.90;;;;;;5011235;28;20079;-78
2022/02/18 04:49:55;;;;;;;10.73;3.15;;;10.10;99.90;;;;;;5010642;28;20440;-79
2022/02/18 04:52:20;;;;;;;14.27;2.67;;;10.60;99.90;;;;;;4994620;28;20033;-79
2022/02/18 04:54:46;;;;;;;15.10;2.55;;;11.40;99.90;;;;;;4978913;28;20029;-78
2022/02/18 04:57:12;;;;;;;16.40;2.60;;;11.70;99.90;;;;;;4994580;28;20044;-79
2022/02/18 04:59:37;;;;;;;14.80;2.78;;;10.30;99.90;;;;;;4992904;28;20042;-78
2022/02/18 05:02:04;;;;;;;13.50;2.38;;;9.90;99.90;;;;;;4977459;28;20033;-78
2022/02/18 05:04:29;;;;;;;10.68;2.35;;;9.90;99.90;;;;;;5011142;28;20022;-78
2022/02/18 05:06:55;;;;;;;15.18;2.40;;;10.00;99.90;;;;;;4992960;28;20030;-78
2022/02/18 05:09:21;;;;;;;15.13;3.33;;;10.00;99.90;;;;;;4976491;28;20045;-79
2022/02/18 05:11:47;;;;;;;13.48;2.50;;;9.70;99.90;;;;;;4996079;23;20042;-79
2022/02/18 05:14:13;;;;;;;13.90;2.45;;;9.70;99.90;;;;;;4991787;28;20026;-79
2022/02/18 05:16:39;;;;;;;14.02;3.25;;;11.60;99.90;;;;;;4995995;28;20037;-80
2022/02/18 05:19:06;;;;;;;9.05;1.95;;;9.60;99.90;;;;;;5001213;28;20027;-80
2022/02/18 05:21:32;;;;;;;10.07;2.20;;;9.60;99.90;;;;;;5006962;28;20022;-79
2022/02/18 05:23:57;;;;;;;14.50;2.38;;;9.60;99.90;;;;;;5013618;28;20367;-81
2022/02/18 05:26:23;;;;;;;11.25;2.42;;;9.60;99.90;;;;;;5013820;28;20026;-79
2022/02/18 05:28:49;;;;;;;12.98;2.58;;;9.70;99.90;;;;;;4994689;28;20026;-79
2022/02/18 05:31:14;;;;;;;9.75;1.77;;;9.60;99.90;;;;;;5011739;28;20030;-79
2022/02/18 05:33:40;;;;;;;11.60;2.40;;;10.80;99.90;;;;;;5010493;28;20041;-80
2022/02/18 05:36:05;;;;;;;13.32;2.22;;;9.80;99.90;;;;;;5009112;28;20061;-80
2022/02/18 05:38:31;;;;;;;13.25;2.40;;;9.70;99.90;;;;;;5008779;28;20044;-79
2022/02/18 05:40:56;;;;;;;15.90;2.90;;;10.80;99.90;;;;;;5009571;28;20026;-79
2022/02/18 05:43:22;;;;;;;12.75;2.03;;;9.70;99.90;;;;;;4992246;28;20386;-79
2022/02/18 05:45:48;;;;;;;12.95;2.42;;;11.50;99.90;;;;;;5009139;28;20026;-79
2022/02/18 05:48:13;;;;;;;13.27;2.63;;;9.80;99.90;;;;;;5009026;28;20030;-79
2022/02/18 05:50:39;;;;;;;12.35;2.33;;;9.80;99.90;;;;;;4991241;28;20485;-80
2022/02/18 05:53:04;;;;;;;15.50;2.50;;;10.10;99.90;;;;;;5012476;28;20033;-80
2022/02/18 05:55:30;;;;;;;13.95;3.03;;;11.30;99.90;;;;;;5012928;28;20064;-79
2022/02/18 05:57:55;;;;;;;11.10;2.40;;;9.90;99.90;;;;;;5012256;28;20034;-79
2022/02/18 06:00:21;;;;;;;9.55;1.90;;;10.00;99.90;;;;;;5012299;28;20030;-79
2022/02/18 06:02:47;;;;;;;12.95;2.47;;;9.90;99.90;;;;;;5013135;28;20508;-79
2022/02/18 06:05:12;;;;;;;12.52;3.13;;;9.90;99.90;;;;;;5012554;28;20033;-79
2022/02/18 06:07:43;;;;;;;14.23;2.10;;;11.40;99.90;;;;;;5012919;28;20030;-79
2022/02/18 06:10:09;;;;;;;8.77;2.35;;;11.20;99.90;;;;;;5015785;28;20057;-79
2022/02/18 06:12:34;;;;;;;11.45;2.15;;;9.80;99.90;;;;;;5015757;28;20042;-79
2022/02/18 06:15:00;;;;;;;11.75;1.90;;;9.80;99.90;;;;;;4997944;28;20034;-79
2022/02/18 06:17:25;;;;;;;10.95;2.20;;;9.70;99.90;;;;;;5016570;28;20026;-79
2022/02/18 06:19:51;;;;;;;9.52;2.28;;;9.80;99.90;;;;;;5008137;28;20034;-79
2022/02/18 06:22:18;;;;;;;14.07;2.85;;;9.80;99.90;;;;;;5005619;28;20030;-79
2022/02/18 06:24:43;;;;;;;10.02;2.53;;;9.80;99.90;;;;;;4994303;28;20038;-79
2022/02/18 06:27:09;;;;;;;13.20;2.65;;;9.80;99.90;;;;;;5000293;28;20037;-79
2022/02/18 06:29:35;;;;;;;12.82;2.55;;;9.80;99.90;;;;;;5003869;28;20410;-79
2022/02/18 06:32:02;;;;;;;18.77;3.13;;;9.80;99.90;;;;;;4999940;28;20038;-80
2022/02/18 06:34:29;;;;;;;13.20;2.97;;;9.80;99.90;;;;;;5009715;28;20037;-80
2022/02/18 06:36:54;;;;;;;11.95;3.10;;;9.80;99.90;;;;;;5014070;28;20054;-79
2022/02/18 06:39:21;;;;;;;10.77;2.38;;;9.90;99.90;;;;;;5013031;28;20037;-79
2022/02/18 06:41:47;;;;;;;13.02;2.85;;;11.20;99.90;;;;;;5013137;28;20113;-78
2022/02/18 06:44:14;;;;;;;14.95;2.20;;;9.90;99.90;;;;;;5013986;28;20061;-80
2022/02/18 06:46:39;;;;;;;10.73;2.33;;;11.10;99.90;;;;;;5014528;28;20071;-78
2022/02/18 06:49:05;;;;;;;15.60;3.20;;;11.90;99.90;;;;;;5011995;28;20022;-79
2022/02/18 06:51:31;;;;;;;11.95;1.65;;;10.30;99.90;;;;;;5012207;28;20029;-79
2022/02/18 06:53:57;;;;;;;10.32;2.25;;;10.40;99.90;;;;;;5012211;28;20030;-79
2022/02/18 06:56:22;;;;;;;12.35;2.15;;;10.90;99.90;;;;;;5012439;28;20026;-78
2022/02/18 06:58:48;;;;;;;9.68;2.00;;;11.30;99.90;;;;;;5011565;28;20029;-79
2022/02/18 07:01:13;;;;;;;14.10;2.40;;;10.60;99.90;;;;;;5012068;28;20087;-79
2022/02/18 07:03:39;;;;;;;12.90;2.78;;;12.10;99.90;;;;;;5009489;28;20030;-79
2022/02/18 07:06:05;;;;;;;10.63;2.10;;;12.40;99.90;;;;;;4998697;28;20091;-79
2022/02/18 07:08:32;;;;;;;11.77;2.60;;;10.70;99.90;;;;;;5010549;28;20029;-79
2022/02/18 07:10:58;;;;;;;11.35;2.55;;;10.80;99.90;;;;;;4974268;28;20854;-79
2022/02/18 07:13:24;;;;;;;11.32;2.25;;;10.80;99.90;;;;;;4972939;28;20383;-79
2022/02/18 07:15:50;;;;;;;18.73;3.60;;;11.70;99.90;;;;;;4988980;28;20101;-79
2022/02/18 07:18:16;;;;;;;14.32;2.83;;;10.80;99.90;;;;;;4988247;28;20103;-79
2022/02/18 07:20:43;;;;;;;15.38;2.80;;;10.60;99.90;;;;;;4988044;28;20060;-79
2022/02/18 07:23:09;;;;;;;11.93;2.42;;;11.00;99.90;;;;;;4991948;28;20030;-79
2022/02/18 07:25:35;;;;;;;10.60;2.25;;;11.40;99.90;;;;;;4994160;28;20386;-79
2022/02/18 07:28:01;;;;;;;15.15;1.98;;;10.90;99.90;;;;;;4994196;28;20065;-79
2022/02/18 07:30:27;;;;;;;17.40;2.35;;;11.00;99.90;;;;;;5010963;28;20026;-79
2022/02/18 07:32:53;;;;;;;13.43;3.30;;;11.10;99.90;;;;;;5010599;28;20037;-79
2022/02/18 07:35:20;;;;;;;10.90;2.03;;;11.20;99.90;;;;;;4993512;28;20041;-79
2022/02/18 07:37:49;;;;;;;16.85;2.15;;;11.00;99.90;;;;;;5011269;28;20030;-79
2022/02/18 07:40:15;;;;;;;8.20;1.85;;;11.90;99.90;;;;;;5010791;28;20034;-79
2022/02/18 07:42:42;;;;;;;12.40;2.65;;;12.10;99.90;;;;;;5002189;28;20044;-79
2022/02/18 07:45:08;;;;;;;15.82;2.17;;;10.70;99.90;;;;;;5011913;28;20163;-79
2022/02/18 07:47:34;;;;;;;15.10;1.80;;;10.60;99.90;;;;;;5011813;28;20500;-79
2022/02/18 07:49:59;;;;;;;10.70;2.15;;;10.30;99.90;;;;;;5011611;28;20041;-79
2022/02/18 07:52:25;;;;;;;15.00;2.35;;;10.20;99.90;;;;;;5011696;28;20105;-79
2022/02/18 07:54:51;;;;;;;10.50;2.38;;;10.10;99.90;;;;;;5011107;28;20109;-79
2022/02/18 07:57:17;;;;;;;13.68;2.20;;;10.60;99.90;;;;;;5011562;28;20041;-79
2022/02/18 07:59:43;;;;;;;14.63;2.60;;;10.00;99.90;;;;;;5010450;28;20025;-78
2022/02/18 08:02:08;;;;;;;35.17;16.10;;;11.10;99.90;;;;;;5011756;28;20057;-78
2022/02/18 08:04:34;;;;;;;14.05;2.42;;;10.80;99.90;;;;;;5007169;28;20149;-77
2022/02/18 08:06:59;;;;;;;13.25;2.10;;;10.00;99.90;;;;;;4994005;28;20034;-78
2022/02/18 08:09:25;;;;;;;10.23;1.92;;;10.00;99.90;;;;;;5021651;28;20034;-77
2022/02/18 08:11:51;;;;;;;12.38;2.40;;;10.20;99.90;;;;;;5000423;28;20057;-78
2022/02/18 08:14:16;;;;;;;12.55;2.13;;;10.20;99.90;;;;;;4998244;28;20022;-78
2022/02/18 08:16:42;;;;;;;11.35;2.17;;;11.10;99.90;;;;;;4994234;28;20037;-78
2022/02/18 08:19:08;;;;;;;11.23;1.77;;;11.30;99.90;;;;;;5010366;28;20389;-79
2022/02/18 08:21:34;;;;;;;12.63;2.33;;;10.40;99.90;;;;;;4995023;28;20078;-79
2022/02/18 08:23:59;;;;;;;10.60;1.85;;;10.30;99.90;;;;;;5012887;28;20022;-78
2022/02/18 08:26:25;;;;;;;9.55;2.33;;;10.50;99.90;;;;;;5010017;28;20053;-79
2022/02/18 08:28:51;;;;;;;7.38;1.73;;;9.70;99.90;;;;;;5009828;28;20113;-78
2022/02/18 08:31:17;;;;;;;8.88;1.65;;;10.60;99.90;;;;;;5003092;28;20393;-78
2022/02/18 08:33:43;;;;;;;8.20;1.40;;;11.50;99.90;;;;;;4989799;28;20031;-78
2022/02/18 08:36:12;;;;;;;8.75;1.38;;;11.00;99.90;;;;;;4997273;28;20467;-79
2022/02/18 08:38:38;;;;;;;6.53;1.60;;;10.70;99.90;;;;;;5008841;28;20065;-78
2022/02/18 08:41:09;;;;;;;6.30;1.67;;;10.80;99.90;;;;;;5004363;28;20034;-78
2022/02/18 08:43:34;;;;;;;4.38;1.70;;;10.90;99.90;;;;;;4989780;28;20030;-77
2022/02/18 08:46:00;;;;;;;5.40;1.45;;;11.10;99.90;;;;;;4989687;28;20037;-78
2022/02/18 08:48:26;;;;;;;5.72;1.55;;;11.10;99.90;;;;;;4971855;28;20482;-78
2022/02/18 08:50:51;;;;;;;7.70;1.13;;;11.50;99.90;;;;;;5004441;28;20096;-78
2022/02/18 08:53:17;;;;;;;6.97;1.15;;;11.40;99.90;;;;;;5008762;28;20113;-78
2022/02/18 08:55:43;;;;;;;5.95;1.00;;;11.40;99.90;;;;;;5008318;28;20558;-78
2022/02/18 08:58:08;;;;;;;5.70;1.08;;;11.70;99.90;;;;;;5009070;28;20037;-78
2022/02/18 09:00:34;;;;;;;4.22;1.13;;;11.90;99.90;;;;;;5006892;28;20036;-78
2022/02/18 09:03:00;;;;;;;5.65;1.20;;;11.80;99.90;;;;;;4989536;28;20091;-77
2022/02/18 09:05:26;;;;;;;3.30;1.05;;;11.80;99.90;;;;;;5006165;28;20034;-78
2022/02/18 09:07:53;;;;;;;4.50;0.80;;;12.00;99.90;;;;;;5011892;28;20026;-78
2022/02/18 09:10:19;;;;;;;4.68;0.80;;;13.10;99.90;;;;;;5012588;28;20067;-78
2022/02/18 09:12:44;;;;;;;5.65;1.20;;;13.40;99.90;;;;;;5013029;28;20038;-77
2022/02/18 09:15:13;;;;;;;2.55;0.82;;;12.30;99.90;;;;;;5011801;28;20033;-78
2022/02/18 09:17:40;;;;;;;3.70;1.00;;;12.50;99.90;;;;;;5010936;28;20030;-77
2022/02/18 09:20:07;;;;;;;4.72;0.93;;;12.50;99.90;;;;;;5009921;28;20551;-78
2022/02/18 09:22:33;;;;;;;4.10;0.68;;;12.60;99.90;;;;;;4993546;28;20044;-78
2022/02/18 09:24:59;;;;;;;0.82;0.28;;;14.40;99.90;;;;;;4991184;28;20023;-77
2022/02/18 09:27:24;;;;;;;3.65;0.40;;;12.20;99.90;;;;;;4993705;28;20486;-78
2022/02/18 09:29:50;;;;;;;2.47;0.50;;;13.10;99.90;;;;;;5006678;28;20038;-78
2022/02/18 09:32:16;;;;;;;1.73;0.93;;;13.50;99.90;;;;;;5022490;28;20034;-78
2022/02/18 09:34:43;;;;;;;2.38;0.77;;;14.40;99.90;;;;;;5022659;28;20049;-77
2022/02/18 09:37:14;;;;;;;2.38;0.43;;;14.30;99.90;;;;;;5018048;28;20022;-78
2022/02/18 09:39:41;;;;;;;3.15;0.47;;;14.00;99.90;;;;;;5015870;28;20053;-78
2022/02/18 09:42:08;;;;;;;2.53;0.40;;;13.50;99.90;;;;;;5014129;28;20508;-78
2022/02/18 09:44:36;;;;;;;2.05;0.50;;;13.50;99.90;;;;;;5015185;28;20060;-78
2022/02/18 09:47:02;;;;;;;2.00;0.52;;;13.60;99.90;;;;;;5014041;28;20018;-79
2022/02/18 09:49:31;;;;;;;3.25;0.35;;;13.50;99.90;;;;;;5013709;28;20477;-80
2022/02/18 09:51:59;;;;;;;0.90;0.40;;;15.30;99.90;;;;;;4985660;28;20403;-78
2022/02/18 09:54:26;;;;;;;1.80;0.30;;;13.70;99.90;;;;;;5006743;28;20030;-78
2022/02/18 09:56:52;;;;;;;2.72;0.70;;;13.90;99.90;;;;;;5014705;28;20026;-81
2022/02/18 09:59:18;;;;;;;3.30;0.47;;;15.10;99.90;;;;;;5007131;28;20023;-79
2022/02/18 10:01:45;;;;;;;2.88;0.50;;;14.20;99.90;;;;;;5061913;28;20107;-79
2022/02/18 10:04:11;;;;;;;2.38;0.40;;;14.20;99.90;;;;;;5011308;28;20493;-79
2022/02/18 10:06:38;;;;;;;3.00;0.30;;;14.30;99.90;;;;;;4996511;28;20034;-81
2022/02/18 10:09:04;;;;;;;2.67;0.63;;;14.20;99.90;;;;;;5015866;28;20355;-80
2022/02/18 10:11:52;;;;;;;2.83;0.60;;;14.10;99.90;;;;;;5005615;28;20026;-79
2022/02/18 10:14:18;;;;;;;3.17;0.50;;;14.20;99.90;;;;;;5007574;28;20045;-79
2022/02/18 10:16:44;;;;;;;2.33;0.50;;;15.90;99.90;;;;;;5014003;28;20030;-80
2022/02/18 10:19:10;;;;;;;2.45;0.40;;;15.90;99.90;;;;;;5014996;28;20022;-79
2022/02/18 10:21:44;;;;;;;1.98;0.43;;;16.70;99.90;;;;;;5004786;28;20029;-80
2022/02/18 10:24:12;;;;;;;1.45;0.20;;;15.60;99.90;;;;;;5016867;28;20089;-80
2022/02/18 10:26:39;;;;;;;1.98;0.40;;;15.70;99.90;;;;;;5064361;28;20026;-78
2022/02/18 10:29:07;;;;;;;1.98;0.45;;;15.10;99.90;;;;;;4992182;28;20026;-82
2022/02/18 10:31:33;;;;;;;1.92;0.50;;;15.40;99.90;;;;;;5003151;28;20713;-80
2022/02/18 10:34:07;;;;;;;2.55;0.50;;;15.70;99.90;;;;;;5009780;28;20041;-80
2022/02/18 10:36:39;;;;;;;1.13;0.30;;;16.20;99.90;;;;;;5013982;28;20037;-80
2022/02/18 10:39:30;;;;;;;1.98;0.40;;;16.70;99.90;;;;;;5012443;28;20033;-80
2022/02/18 10:42:02;;;;;;;3.88;0.35;;;16.60;99.90;;;;;;5017670;28;20042;-81
2022/02/18 10:44:29;;;;;;;3.72;0.57;;;17.30;99.90;;;;;;5013203;28;20014;-82
2022/02/18 10:46:56;;;;;;;3.05;0.60;;;17.60;99.90;;;;;;5015006;28;20029;-80
2022/02/18 10:49:23;;;;;;;1.23;0.40;;;17.80;99.90;;;;;;5014696;28;20038;-80
2022/02/18 10:51:52;;;;;;;3.40;0.35;;;19.00;99.90;;;;;;5015637;28;20063;-81
2022/02/18 10:54:37;;;;;;;2.25;0.55;;;18.40;99.90;;;;;;5016374;28;20022;-82
2022/02/18 10:57:24;;;;;;;1.38;0.28;;;19.00;99.90;;;;;;5014379;28;20555;-80
2022/02/18 10:59:51;;;;;;;2.20;0.45;;;18.20;99.90;;;;;;5014209;28;20147;-80
2022/02/18 11:02:50;;;;;;;1.27;0.30;;;17.70;99.90;;;;;;4980212;28;20037;-81
2022/02/18 11:05:33;;;;;;;1.85;0.40;;;17.80;99.90;;;;;;4987819;28;20071;-80
2022/02/18 11:07:58;;;;;;;1.77;0.38;;;19.00;99.90;;;;;;5012160;28;20024;-82
2022/02/18 11:10:39;;;;;;;0.95;0.30;;;19.20;99.90;;;;;;5011793;28;20030;-80
2022/02/18 11:13:05;;;;;;;7.03;0.70;;;18.30;99.90;;;;;;4994109;22;20058;-79
2022/02/18 11:15:34;;;;;;;1.27;0.30;;;20.20;99.90;;;;;;4986423;28;20079;-78
2022/02/18 11:18:00;;;;;;;4.70;0.50;;;18.80;99.30;;;;;;4992769;28;20034;-79
2022/02/18 11:20:27;;;;;;;2.30;0.40;;;18.20;99.90;;;;;;4991766;28;20026;-78
2022/02/18 11:22:54;;;;;;;1.70;0.43;;;18.00;99.90;;;;;;4991401;28;20075;-78
2022/02/18 11:25:21;;;;;;;0.73;0.30;;;16.80;99.90;;;;;;4974135;28;20034;-78
2022/02/18 11:27:47;;;;;;;0.80;0.32;;;16.80;99.90;;;;;;4991386;28;20034;-79
2022/02/18 11:30:13;;;;;;;1.90;0.63;;;17.20;99.90;;;;;;4972955;28;20026;-78
2022/02/18 11:33:04;;;;;;;1.98;0.40;;;16.40;99.90;;;;;;4991012;28;20101;-79
2022/02/18 11:36:13;;;;;;;1.30;0.40;;;16.40;99.90;;;;;;4973828;28;20125;-78
2022/02/18 11:39:05;;;;;;;2.78;0.50;;;16.50;99.90;;;;;;4946174;28;20046;-78
2022/02/18 11:41:50;;;;;;;3.38;0.50;;;16.40;99.90;;;;;;4991124;28;20027;-78
2022/02/18 11:44:27;;;;;;;2.33;0.30;;;16.50;99.90;;;;;;4991058;28;20506;-78
2022/02/18 11:47:16;;;;;;;1.40;0.45;;;16.60;99.90;;;;;;4989173;28;20141;-78
2022/02/18 11:49:43;;;;;;;2.28;0.50;;;16.50;99.90;;;;;;4971569;28;20034;-79
2022/02/18 11:52:13;;;;;;;8.02;0.70;;;16.60;99.90;;;;;;4971246;28;20027;-78
2022/02/18 11:54:39;;;;;;;1.90;0.50;;;16.50;99.90;;;;;;4971271;28;20088;-78
2022/02/18 11:57:09;;;;;;;1.58;0.50;;;16.50;99.90;;;;;;4972025;28;20027;-78
2022/02/18 11:59:45;;;;;;;2.55;0.40;;;16.80;99.90;;;;;;4970888;28;20591;-78
2022/02/18 12:02:11;;;;;;;2.25;0.40;;;16.70;99.90;;;;;;4971105;28;20042;-78
2022/02/18 12:04:39;;;;;;;1.45;0.30;;;16.60;99.90;;;;;;4972128;28;20027;-78
2022/02/18 12:07:16;;;;;;;2.80;0.32;;;17.50;99.90;;;;;;4970851;28;20336;-78
2022/02/18 12:09:48;;;;;;;3.45;0.45;;;16.40;99.90;;;;;;4970394;28;20019;-78
2022/02/18 12:12:26;;;;;;;1.15;0.40;;;16.10;99.90;;;;;;4970556;28;20455;-78
2022/02/18 12:14:55;;;;;;;1.98;0.55;;;16.10;99.90;;;;;;4970830;28;20027;-78
2022/02/18 12:17:21;;;;;;;4.20;0.40;;;16.00;99.90;;;;;;4953294;28;20030;-78
2022/02/18 12:19:47;;;;;;;1.85;0.50;;;16.10;99.90;;;;;;4966142;28;20517;-78
2022/02/18 12:22:13;;;;;;;2.17;0.43;;;16.10;99.90;;;;;;4962659;28;20030;-79
2022/02/18 12:24:43;;;;;;;3.03;0.40;;;16.20;99.90;;;;;;4962559;28;20060;-79
2022/02/18 12:27:24;;;;;;;1.48;0.45;;;16.00;99.90;;;;;;4996317;28;20026;-78
2022/02/18 12:29:54;;;;;;;2.90;0.73;;;16.00;99.90;;;;;;4978224;28;20026;-78
2022/02/18 12:32:20;;;;;;;3.63;0.52;;;16.10;99.90;;;;;;4979531;28;20049;-79
2022/02/18 12:35:02;;;;;;;5.13;0.50;;;16.50;99.90;;;;;;4977984;28;20022;-79
2022/02/18 12:37:28;;;;;;;4.55;0.70;;;16.40;99.90;;;;;;4995596;28;20071;-78
2022/02/18 12:39:54;;;;;;;2.45;0.50;;;16.80;99.90;;;;;;4977761;28;20034;-78